Time;durP1;ratioP1;P1;durP2;ratioP2;P2;SDS_P1;SDS_P2;PMS_P1;PMS_P2;Temp;Humidity;BMP_temperature;BMP_pressure;BME280_temperature;BME280_humidity;BME280_pressure;Samples;Min_cycle;Max_cycle;Signal;HPM_P1;HPM_P2
2022/11/17 00:00:18;;;;;;;3.70;1.40;;;10.20;99.90;;;;;;5088673;28;20428;-69
2022/11/17 00:02:45;;;;;;;1.40;1.20;;;10.20;99.90;;;;;;5087435;28;20410;-69
2022/11/17 00:05:10;;;;;;;3.00;1.50;;;10.20;99.90;;;;;;5088053;28;20401;-69
2022/11/17 00:07:36;;;;;;;1.58;1.20;;;10.20;99.90;;;;;;5090064;28;20472;-70
2022/11/17 00:10:02;;;;;;;1.57;1.10;;;10.30;99.90;;;;;;5091218;28;20382;-70
2022/11/17 00:15:12;;;;;;;1.80;1.00;;;10.50;99.90;;;;;;5089017;28;20458;-69
2022/11/17 00:17:37;;;;;;;0.90;0.90;;;10.60;99.90;;;;;;5089705;28;20440;-69
2022/11/17 00:22:47;;;;;;;1.63;1.05;;;10.60;99.90;;;;;;5082569;28;20910;-69
2022/11/17 00:25:13;;;;;;;1.50;1.00;;;10.60;99.90;;;;;;5089440;28;20410;-69
2022/11/17 00:27:39;;;;;;;1.20;1.10;;;10.60;99.90;;;;;;5079695;28;20403;-68
2022/11/17 00:30:05;;;;;;;1.48;1.38;;;10.60;99.90;;;;;;5066532;28;20394;-69
2022/11/17 00:35:15;;;;;;;3.50;1.70;;;10.60;99.90;;;;;;5090412;28;20384;-67
2022/11/17 00:38:14;;;;;;;1.73;0.90;;;10.60;99.90;;;;;;5090473;28;20756;-69
2022/11/17 00:40:26;;;;;;;2.00;1.05;;;10.70;99.90;;;;;;5089157;28;20389;-70
2022/11/17 00:42:52;;;;;;;1.65;1.10;;;10.70;99.90;;;;;;5088527;28;20421;-68
2022/11/17 00:45:17;;;;;;;1.10;0.90;;;10.70;99.90;;;;;;5089055;28;20409;-68
2022/11/17 00:47:43;;;;;;;1.10;0.83;;;10.80;99.90;;;;;;5088082;28;20458;-69
2022/11/17 00:50:09;;;;;;;2.00;1.00;;;10.80;99.90;;;;;;5087156;28;20473;-70
2022/11/17 00:52:34;;;;;;;1.15;0.90;;;10.70;99.90;;;;;;5088629;28;20803;-69
2022/11/17 00:55:00;;;;;;;1.55;1.30;;;10.70;99.90;;;;;;5089205;28;20447;-68
2022/11/17 00:57:26;;;;;;;1.23;0.98;;;10.60;99.90;;;;;;5087796;28;20397;-68
2022/11/17 00:59:51;;;;;;;1.93;1.30;;;10.60;99.90;;;;;;5089475;28;20792;-69
2022/11/17 01:02:17;;;;;;;1.17;1.07;;;10.50;99.90;;;;;;5088705;28;20921;-68
2022/11/17 01:04:42;;;;;;;1.67;1.10;;;10.50;99.90;;;;;;5087483;28;20409;-68
2022/11/17 01:07:08;;;;;;;1.13;0.80;;;10.50;99.90;;;;;;5088259;28;20489;-67
2022/11/17 01:09:33;;;;;;;1.67;0.80;;;10.60;99.90;;;;;;5089675;28;20392;-69
2022/11/17 01:11:59;;;;;;;1.70;1.20;;;10.60;99.90;;;;;;5090054;28;20400;-69
2022/11/17 01:14:26;;;;;;;0.82;0.63;;;10.60;99.90;;;;;;5087420;28;20913;-68
2022/11/17 01:16:52;;;;;;;1.20;0.70;;;10.60;99.90;;;;;;5088819;28;20432;-69
2022/11/17 01:19:19;;;;;;;0.90;0.80;;;10.60;99.90;;;;;;5086162;28;20396;-69
2022/11/17 01:21:45;;;;;;;1.40;0.77;;;10.50;99.90;;;;;;5087911;28;20402;-69
2022/11/17 01:24:12;;;;;;;0.90;0.60;;;10.50;99.90;;;;;;5087931;28;20899;-68
2022/11/17 01:26:39;;;;;;;1.23;0.80;;;10.60;99.90;;;;;;5070390;28;20456;-69
2022/11/17 01:29:05;;;;;;;0.73;0.70;;;10.60;99.90;;;;;;5089847;28;20546;-69
2022/11/17 01:31:33;;;;;;;1.08;0.70;;;10.60;99.90;;;;;;5085881;28;20405;-68
2022/11/17 01:33:59;;;;;;;1.30;0.70;;;10.60;99.90;;;;;;5088215;28;20419;-69
2022/11/17 01:36:28;;;;;;;1.40;0.70;;;10.70;99.90;;;;;;5087611;28;20993;-70
2022/11/17 01:38:53;;;;;;;1.20;0.70;;;10.80;99.90;;;;;;5088646;28;20432;-70
2022/11/17 01:41:24;;;;;;;0.93;0.60;;;10.90;99.90;;;;;;5070050;28;20426;-68
2022/11/17 01:43:58;;;;;;;1.23;0.50;;;10.90;99.90;;;;;;5087553;28;20406;-69
2022/11/17 01:46:36;;;;;;;1.45;0.70;;;10.90;99.90;;;;;;5087291;28;20405;-68
2022/11/17 01:49:10;;;;;;;0.60;0.40;;;10.90;99.90;;;;;;5084831;28;20514;-70
2022/11/17 01:51:41;;;;;;;0.80;0.60;;;11.10;99.90;;;;;;5081324;28;20443;-68
2022/11/17 01:54:09;;;;;;;2.78;0.70;;;11.10;99.90;;;;;;5087998;28;20398;-70
2022/11/17 01:56:39;;;;;;;1.92;0.68;;;11.30;99.90;;;;;;5070423;28;20910;-70
2022/11/17 01:59:20;;;;;;;1.50;0.70;;;11.40;99.90;;;;;;5089057;28;20412;-69
2022/11/17 02:01:57;;;;;;;1.00;0.60;;;11.60;99.90;;;;;;5064155;28;20489;-70
2022/11/17 02:04:33;;;;;;;1.00;0.50;;;11.80;99.90;;;;;;5086657;28;20479;-70
2022/11/17 02:07:07;;;;;;;0.85;0.50;;;11.90;99.90;;;;;;5088054;28;20799;-70
2022/11/17 02:09:36;;;;;;;1.80;0.70;;;11.90;99.90;;;;;;5081684;28;20409;-70
2022/11/17 02:12:02;;;;;;;1.50;0.50;;;12.40;99.90;;;;;;5091327;28;20899;-69
2022/11/17 02:14:28;;;;;;;0.60;0.40;;;12.60;99.90;;;;;;5091138;28;20410;-70
2022/11/17 02:16:54;;;;;;;0.50;0.33;;;12.70;99.90;;;;;;5091914;28;20424;-69
2022/11/17 02:19:22;;;;;;;0.77;0.50;;;12.80;99.90;;;;;;5091584;28;20397;-69
2022/11/17 02:22:15;;;;;;;1.80;0.50;;;12.80;99.90;;;;;;5090668;28;20470;-69
2022/11/17 02:25:07;;;;;;;1.70;1.20;;;12.90;99.90;;;;;;5084255;28;20405;-68
2022/11/17 02:27:38;;;;;;;0.80;0.50;;;13.10;99.90;;;;;;5086194;28;20819;-69
2022/11/17 02:30:12;;;;;;;0.88;0.50;;;13.00;99.90;;;;;;5088908;28;20724;-68
2022/11/17 02:32:48;;;;;;;0.50;0.40;;;12.90;99.90;;;;;;5088991;28;20448;-69
2022/11/17 02:35:30;;;;;;;0.90;0.40;;;12.80;99.90;;;;;;5092700;28;20420;-68
2022/11/17 02:38:10;;;;;;;0.65;0.40;;;12.70;99.90;;;;;;5090704;28;20451;-69
2022/11/17 02:40:56;;;;;;;0.77;0.40;;;12.80;99.90;;;;;;5067366;28;20393;-69
2022/11/17 02:46:17;;;;;;;0.80;0.50;;;12.60;99.90;;;;;;5091308;28;20409;-69
2022/11/17 02:48:48;;;;;;;0.50;0.40;;;12.70;99.90;;;;;;5090421;28;20918;-69
2022/11/17 02:51:22;;;;;;;1.20;0.40;;;12.60;99.90;;;;;;5092491;28;20751;-69
2022/11/17 02:53:50;;;;;;;1.08;0.35;;;12.50;99.90;;;;;;5089679;28;20393;-67
2022/11/17 02:56:16;;;;;;;0.70;0.52;;;12.50;99.90;;;;;;5092311;28;20393;-69
2022/11/17 02:58:42;;;;;;;0.60;0.40;;;12.30;99.90;;;;;;5090308;28;20406;-69
2022/11/17 03:01:32;;;;;;;0.70;0.40;;;12.10;99.90;;;;;;5090215;28;20420;-67
2022/11/17 03:04:34;;;;;;;0.68;0.40;;;12.00;99.90;;;;;;5073557;22;20433;-68
2022/11/17 03:07:31;;;;;;;1.10;0.40;;;11.90;99.90;;;;;;5046910;28;20949;-68
2022/11/17 03:10:18;;;;;;;0.60;0.50;;;12.00;99.90;;;;;;5047461;28;20455;-68
2022/11/17 03:13:03;;;;;;;1.10;0.70;;;11.70;99.90;;;;;;5032102;28;20496;-68
2022/11/17 03:16:06;;;;;;;1.60;0.60;;;11.60;99.90;;;;;;5050521;28;20450;-68
2022/11/17 03:18:42;;;;;;;1.80;0.40;;;11.60;99.90;;;;;;5042646;28;20404;-68
2022/11/17 03:21:22;;;;;;;1.00;0.40;;;11.60;99.90;;;;;;5049383;28;20811;-68
2022/11/17 03:24:02;;;;;;;0.50;0.50;;;11.50;99.90;;;;;;5039982;28;20433;-68
2022/11/17 03:26:34;;;;;;;0.70;0.43;;;11.50;99.90;;;;;;5032641;28;20413;-68
2022/11/17 03:29:04;;;;;;;0.70;0.43;;;11.50;99.90;;;;;;5046233;28;20470;-68
2022/11/17 03:31:31;;;;;;;0.40;0.32;;;11.50;99.90;;;;;;5051016;28;20898;-68
2022/11/17 03:33:59;;;;;;;0.90;0.40;;;11.70;99.90;;;;;;5049590;28;20413;-68
2022/11/17 03:36:31;;;;;;;0.80;0.45;;;11.70;99.90;;;;;;5050592;28;20977;-71
2022/11/17 03:39:04;;;;;;;0.90;0.40;;;12.00;99.90;;;;;;5042917;28;20403;-68
2022/11/17 03:41:32;;;;;;;2.10;0.40;;;12.60;99.90;;;;;;5042878;28;20413;-69
2022/11/17 03:43:59;;;;;;;0.70;0.40;;;12.80;99.90;;;;;;5049651;28;20420;-69
2022/11/17 03:46:26;;;;;;;0.68;0.47;;;12.80;99.90;;;;;;5050007;28;20401;-69
2022/11/17 03:49:09;;;;;;;1.00;0.40;;;12.70;99.90;;;;;;5049462;28;20768;-69
2022/11/17 03:51:35;;;;;;;0.60;0.40;;;12.80;99.90;;;;;;5043532;28;20940;-69
2022/11/17 03:54:01;;;;;;;0.80;0.40;;;12.80;99.90;;;;;;5048804;28;20408;-69
2022/11/17 03:56:52;;;;;;;2.13;0.50;;;12.90;99.90;;;;;;5038805;28;20880;-68
2022/11/17 03:59:24;;;;;;;0.90;0.30;;;12.90;99.90;;;;;;5047447;28;20492;-69
2022/11/17 04:01:50;;;;;;;0.80;0.40;;;13.00;99.90;;;;;;5043620;28;20457;-69
2022/11/17 04:04:19;;;;;;;0.93;0.50;;;12.70;99.90;;;;;;5046288;28;20457;-68
2022/11/17 04:06:45;;;;;;;1.10;0.60;;;12.60;99.90;;;;;;5049935;28;20445;-69
2022/11/17 04:09:10;;;;;;;0.60;0.40;;;12.70;99.90;;;;;;5048342;28;20404;-69
2022/11/17 04:17:04;;;;;;;1.30;0.40;;;12.60;99.90;;;;;;5041347;28;20419;-70
2022/11/17 04:19:29;;;;;;;0.93;0.40;;;12.80;99.90;;;;;;5041098;28;20828;-69
2022/11/17 04:21:55;;;;;;;1.03;0.40;;;12.90;99.90;;;;;;5050279;28;20844;-69
2022/11/17 04:24:20;;;;;;;0.60;0.43;;;12.80;99.90;;;;;;5039667;28;20412;-72
2022/11/17 04:29:30;;;;;;;1.40;0.40;;;12.50;99.90;;;;;;5045868;28;20943;-73
2022/11/17 04:31:56;;;;;;;0.50;0.50;;;12.30;99.90;;;;;;5015680;28;20397;-72
2022/11/17 04:34:21;;;;;;;1.70;0.40;;;12.30;99.90;;;;;;5045794;28;20799;-70
2022/11/17 04:36:47;;;;;;;0.80;0.60;;;12.20;99.90;;;;;;5046146;28;20459;-71
2022/11/17 04:39:13;;;;;;;0.68;0.60;;;12.40;99.90;;;;;;5048541;28;20405;-71
2022/11/17 04:41:52;;;;;;;2.20;0.50;;;12.40;99.90;;;;;;5030942;28;20403;-71
2022/11/17 04:44:19;;;;;;;1.08;0.47;;;12.40;99.90;;;;;;5039991;28;21140;-71
2022/11/17 04:46:47;;;;;;;1.70;0.50;;;12.60;99.90;;;;;;5048401;28;20775;-71
2022/11/17 04:49:15;;;;;;;0.90;0.60;;;12.60;99.90;;;;;;5048642;28;20467;-70
2022/11/17 04:51:41;;;;;;;0.90;0.60;;;12.60;99.90;;;;;;5050188;28;20440;-71
2022/11/17 04:54:08;;;;;;;1.65;0.55;;;12.60;99.90;;;;;;5017143;28;20403;-71
2022/11/17 04:56:34;;;;;;;1.80;0.52;;;12.60;99.90;;;;;;5049372;28;20436;-71
2022/11/17 04:58:59;;;;;;;3.25;0.70;;;12.60;99.90;;;;;;5039638;28;20881;-71
2022/11/17 05:01:26;;;;;;;1.10;0.60;;;12.70;99.90;;;;;;5047157;28;20421;-70
2022/11/17 05:03:54;;;;;;;1.42;0.70;;;12.70;99.90;;;;;;5039740;28;20417;-70
2022/11/17 05:06:26;;;;;;;1.65;0.70;;;12.60;99.90;;;;;;5047866;28;20428;-70
2022/11/17 05:08:54;;;;;;;1.70;0.50;;;12.60;99.90;;;;;;5049180;28;20397;-70
2022/11/17 05:14:06;;;;;;;2.97;0.90;;;12.70;99.90;;;;;;5035572;28;20859;-70
2022/11/17 05:19:18;;;;;;;2.00;0.80;;;12.80;99.90;;;;;;5048935;28;20462;-70
2022/11/17 05:21:44;;;;;;;0.70;0.50;;;12.80;99.90;;;;;;5049204;28;20405;-71
2022/11/17 05:24:09;;;;;;;3.60;0.90;;;12.90;99.90;;;;;;5042523;28;20413;-70
2022/11/17 05:26:36;;;;;;;1.70;0.65;;;12.90;99.90;;;;;;5047807;28;20439;-70
2022/11/17 05:29:04;;;;;;;1.35;0.60;;;12.90;99.90;;;;;;5023180;28;20470;-70
2022/11/17 05:31:30;;;;;;;2.63;0.80;;;12.90;99.90;;;;;;5050608;28;20411;-70
2022/11/17 05:33:56;;;;;;;2.63;0.80;;;12.90;99.90;;;;;;5056524;28;20818;-70
2022/11/17 05:36:23;;;;;;;1.05;0.73;;;13.00;99.90;;;;;;5044310;28;20389;-70
2022/11/17 05:38:49;;;;;;;2.00;0.60;;;13.00;99.90;;;;;;5048296;28;20405;-70
2022/11/17 05:41:16;;;;;;;1.50;0.70;;;13.00;99.90;;;;;;5039256;28;20916;-70
2022/11/17 05:43:41;;;;;;;1.60;0.50;;;12.90;99.90;;;;;;5033491;28;20392;-71
2022/11/17 05:46:07;;;;;;;2.58;0.70;;;12.90;99.90;;;;;;5049957;28;20417;-71
2022/11/17 05:48:33;;;;;;;1.20;0.60;;;12.90;99.90;;;;;;5052119;28;20409;-70
2022/11/17 05:50:59;;;;;;;1.60;0.70;;;13.00;99.90;;;;;;5053238;28;20382;-70
2022/11/17 05:53:25;;;;;;;2.33;0.60;;;13.00;99.90;;;;;;5033168;28;20472;-71
2022/11/17 05:56:19;;;;;;;2.83;0.80;;;13.00;99.90;;;;;;5040639;28;20484;-70
2022/11/17 05:58:48;;;;;;;2.87;0.90;;;13.10;99.90;;;;;;5053136;28;20408;-71
2022/11/17 06:01:15;;;;;;;3.22;0.90;;;13.10;99.90;;;;;;5052346;28;20949;-71
2022/11/17 06:03:49;;;;;;;3.00;1.05;;;13.10;99.90;;;;;;5050073;28;20829;-69
2022/11/17 06:06:15;;;;;;;3.75;0.80;;;13.10;99.90;;;;;;5050916;28;20440;-69
2022/11/17 06:08:41;;;;;;;2.60;1.00;;;13.00;99.90;;;;;;5043924;28;20902;-69
2022/11/17 06:11:06;;;;;;;1.90;0.90;;;13.10;99.90;;;;;;5042162;28;20421;-70
2022/11/17 06:13:32;;;;;;;3.92;0.90;;;13.20;99.90;;;;;;5049994;28;20462;-69
2022/11/17 06:16:00;;;;;;;3.13;0.93;;;13.20;99.90;;;;;;5050392;28;20444;-69
2022/11/17 06:18:30;;;;;;;3.40;1.20;;;13.20;99.90;;;;;;5051293;28;20466;-69
2022/11/17 06:20:56;;;;;;;3.13;1.13;;;13.30;99.90;;;;;;5051707;28;20412;-69
2022/11/17 06:23:25;;;;;;;2.30;1.10;;;13.10;99.90;;;;;;5042487;28;20775;-70
2022/11/17 06:25:50;;;;;;;2.13;0.90;;;13.00;99.90;;;;;;5050446;28;21470;-70
2022/11/17 06:28:19;;;;;;;4.60;1.50;;;12.90;99.90;;;;;;5043799;28;20415;-70
2022/11/17 06:30:46;;;;;;;7.13;1.65;;;12.60;99.90;;;;;;5045425;28;20406;-69
2022/11/17 06:33:16;;;;;;;3.75;1.40;;;12.40;99.90;;;;;;5046693;28;20803;-70
2022/11/17 06:35:43;;;;;;;1.30;0.90;;;12.30;99.90;;;;;;5046117;28;20408;-71
2022/11/17 06:38:08;;;;;;;6.07;1.70;;;12.20;99.90;;;;;;5044857;28;20440;-71
2022/11/17 06:40:34;;;;;;;7.43;1.48;;;12.10;99.90;;;;;;5031856;28;20915;-72
2022/11/17 06:43:02;;;;;;;4.40;1.30;;;12.00;99.90;;;;;;5045150;28;20439;-72
2022/11/17 06:45:44;;;;;;;3.60;1.20;;;11.90;99.90;;;;;;5048866;28;20475;-72
2022/11/17 06:48:11;;;;;;;4.93;1.50;;;11.90;99.90;;;;;;5032954;28;20468;-72
2022/11/17 06:50:37;;;;;;;3.03;1.15;;;11.80;99.90;;;;;;5042810;28;20420;-73
2022/11/17 06:53:05;;;;;;;5.10;1.50;;;11.80;99.90;;;;;;5032841;28;20922;-72
2022/11/17 06:55:32;;;;;;;2.53;0.90;;;11.70;99.90;;;;;;5039143;28;20434;-71
2022/11/17 06:58:05;;;;;;;3.50;1.20;;;11.70;99.90;;;;;;5042708;28;20405;-72
2022/11/17 07:00:31;;;;;;;3.00;1.27;;;11.70;99.90;;;;;;5044866;28;20410;-71
2022/11/17 07:03:02;;;;;;;2.45;1.00;;;11.60;99.90;;;;;;5030392;28;20768;-72
2022/11/17 07:05:29;;;;;;;2.55;0.90;;;11.50;99.90;;;;;;5044751;28;20501;-73
2022/11/17 07:07:58;;;;;;;3.10;0.95;;;11.60;99.90;;;;;;5045309;28;20471;-72
2022/11/17 07:10:25;;;;;;;2.67;0.70;;;11.50;99.90;;;;;;5040655;28;20490;-71
2022/11/17 07:12:50;;;;;;;3.00;1.10;;;11.50;99.90;;;;;;5048348;28;20409;-74
2022/11/17 07:15:15;;;;;;;4.00;0.82;;;11.40;99.90;;;;;;5046818;28;20881;-72
2022/11/17 07:17:41;;;;;;;3.30;1.03;;;11.30;99.90;;;;;;5044925;28;20406;-72
2022/11/17 07:20:07;;;;;;;1.53;0.70;;;11.30;99.90;;;;;;5048087;28;20408;-72
2022/11/17 07:22:33;;;;;;;1.80;0.70;;;11.20;99.90;;;;;;5047906;28;20409;-72
2022/11/17 07:24:58;;;;;;;3.60;0.83;;;11.20;99.90;;;;;;5049144;28;20416;-73
2022/11/17 07:27:24;;;;;;;3.17;1.10;;;11.00;99.90;;;;;;5042700;28;20414;-76
2022/11/17 07:29:49;;;;;;;2.90;0.70;;;11.00;99.90;;;;;;5065163;28;20385;-71
2022/11/17 07:32:15;;;;;;;4.30;1.00;;;10.90;99.90;;;;;;5032438;28;20393;-73
2022/11/17 07:34:41;;;;;;;2.95;1.02;;;10.80;99.90;;;;;;5048882;28;20833;-72
2022/11/17 07:37:07;;;;;;;4.15;1.40;;;10.70;99.90;;;;;;5031809;28;20468;-74
2022/11/17 07:39:33;;;;;;;4.00;1.20;;;10.70;99.90;;;;;;5048895;28;20386;-73
2022/11/17 07:41:58;;;;;;;3.23;1.30;;;10.60;99.90;;;;;;5049138;28;20396;-74
2022/11/17 07:44:24;;;;;;;3.07;1.10;;;10.60;99.90;;;;;;5047502;28;20428;-72
2022/11/17 07:46:49;;;;;;;3.72;1.33;;;10.60;99.90;;;;;;5049936;28;20519;-75
2022/11/17 07:49:15;;;;;;;5.03;1.20;;;10.50;99.90;;;;;;5050720;28;20389;-73
2022/11/17 07:51:40;;;;;;;2.60;0.90;;;10.60;99.90;;;;;;5051241;28;20374;-74
2022/11/17 07:54:06;;;;;;;1.40;0.75;;;10.60;99.90;;;;;;5050360;28;20863;-70
2022/11/17 07:56:33;;;;;;;2.70;1.20;;;10.60;99.90;;;;;;5051069;28;20397;-72
2022/11/17 07:58:58;;;;;;;2.20;0.98;;;10.50;99.90;;;;;;5033327;28;20464;-70
2022/11/17 08:01:26;;;;;;;3.60;1.00;;;10.40;99.90;;;;;;5032928;28;20474;-73
2022/11/17 08:03:52;;;;;;;2.70;1.00;;;10.40;99.90;;;;;;5049878;28;20814;-70
2022/11/17 08:06:18;;;;;;;1.45;0.68;;;10.20;99.90;;;;;;5032386;28;20397;-69
2022/11/17 08:08:44;;;;;;;1.70;0.80;;;10.20;99.90;;;;;;5050776;28;20381;-71
2022/11/17 08:11:11;;;;;;;2.70;0.70;;;10.30;99.90;;;;;;5050851;28;20802;-69
2022/11/17 08:13:38;;;;;;;2.40;1.02;;;10.20;99.90;;;;;;5032110;28;20385;-72
2022/11/17 08:16:05;;;;;;;3.05;0.80;;;10.20;99.90;;;;;;5032861;28;20477;-69
2022/11/17 08:18:31;;;;;;;1.30;0.70;;;10.20;99.90;;;;;;5050674;28;20381;-70
2022/11/17 08:21:04;;;;;;;2.35;0.98;;;10.10;99.90;;;;;;5050743;28;20860;-68
2022/11/17 08:23:30;;;;;;;2.00;0.90;;;10.10;99.90;;;;;;5049795;28;20465;-71
2022/11/17 08:25:56;;;;;;;2.00;0.70;;;10.10;99.90;;;;;;5050141;28;20500;-69
2022/11/17 08:28:22;;;;;;;1.70;0.80;;;10.10;99.90;;;;;;5050529;28;21068;-69
2022/11/17 08:30:47;;;;;;;2.83;0.80;;;10.10;99.90;;;;;;5050559;28;20436;-69
2022/11/17 08:33:13;;;;;;;2.57;1.10;;;10.10;99.90;;;;;;5049624;28;20751;-69
2022/11/17 08:35:39;;;;;;;3.60;1.40;;;10.10;99.90;;;;;;5046614;28;20393;-68
2022/11/17 08:38:05;;;;;;;3.40;1.10;;;10.00;99.90;;;;;;5049871;28;20419;-67
2022/11/17 08:40:32;;;;;;;2.30;1.48;;;10.00;99.90;;;;;;5022100;28;20387;-69
2022/11/17 08:42:58;;;;;;;1.85;1.30;;;9.90;99.90;;;;;;5045942;28;20482;-70
2022/11/17 08:45:24;;;;;;;2.50;1.30;;;10.00;99.90;;;;;;5031973;28;20837;-69
2022/11/17 08:47:50;;;;;;;2.28;1.40;;;10.00;99.90;;;;;;5032127;28;20386;-70
2022/11/17 08:50:16;;;;;;;3.25;0.90;;;10.10;99.90;;;;;;5049978;28;20796;-70
2022/11/17 08:52:43;;;;;;;1.48;0.70;;;10.10;99.90;;;;;;5049221;28;20389;-71
2022/11/17 08:55:09;;;;;;;1.75;0.63;;;10.20;99.90;;;;;;5050405;28;20381;-69
2022/11/17 08:57:35;;;;;;;3.25;0.93;;;10.10;99.90;;;;;;5051150;28;20396;-69
2022/11/17 09:00:01;;;;;;;1.30;0.45;;;10.20;99.90;;;;;;5051667;28;20385;-70
2022/11/17 09:02:27;;;;;;;2.30;0.70;;;10.30;99.90;;;;;;5033527;28;20738;-71
2022/11/17 09:04:53;;;;;;;1.20;0.50;;;10.40;99.90;;;;;;5059155;22;20445;-68
2022/11/17 09:07:18;;;;;;;3.08;0.90;;;10.40;99.90;;;;;;5021914;28;20411;-68
2022/11/17 09:09:45;;;;;;;2.95;0.75;;;10.40;99.90;;;;;;5029119;28;20399;-69
2022/11/17 09:12:11;;;;;;;1.20;0.63;;;10.50;99.90;;;;;;5029625;28;20896;-69
2022/11/17 09:14:36;;;;;;;2.25;0.80;;;10.60;99.90;;;;;;5029127;28;20471;-69
2022/11/17 09:17:02;;;;;;;3.80;0.80;;;10.70;99.90;;;;;;5030045;28;20430;-68
2022/11/17 09:19:28;;;;;;;3.30;1.00;;;10.90;99.90;;;;;;5033460;28;20398;-68
2022/11/17 09:21:53;;;;;;;1.70;0.80;;;11.10;99.90;;;;;;5034070;28;20386;-68
2022/11/17 09:24:19;;;;;;;2.57;0.90;;;11.20;99.90;;;;;;5033099;28;20405;-70
2022/11/17 09:26:44;;;;;;;3.73;1.10;;;11.30;99.90;;;;;;5033996;28;20427;-70
2022/11/17 09:29:10;;;;;;;3.38;1.05;;;11.30;99.90;;;;;;5034034;28;20379;-69
2022/11/17 09:31:36;;;;;;;2.88;1.13;;;11.50;99.90;;;;;;5032209;28;20478;-71
2022/11/17 09:34:02;;;;;;;2.55;1.05;;;11.60;99.90;;;;;;5033024;28;20379;-70
2022/11/17 09:36:28;;;;;;;5.80;1.20;;;11.50;99.90;;;;;;5033840;28;20383;-71
2022/11/17 09:38:53;;;;;;;7.03;1.30;;;11.60;99.90;;;;;;5033761;28;20410;-71
2022/11/17 09:41:33;;;;;;;4.47;1.60;;;11.60;99.90;;;;;;5033499;28;20397;-70
2022/11/17 09:44:13;;;;;;;4.97;1.40;;;11.70;99.90;;;;;;5032807;28;20788;-72
2022/11/17 09:47:10;;;;;;;3.25;1.63;;;11.80;99.90;;;;;;5033503;28;20456;-72
2022/11/17 09:50:11;;;;;;;4.50;1.40;;;11.80;99.90;;;;;;5033516;28;20421;-74
2022/11/17 09:53:11;;;;;;;4.55;1.40;;;11.90;99.90;;;;;;5024436;28;20403;-72
2022/11/17 09:55:44;;;;;;;5.60;1.52;;;12.00;99.90;;;;;;5033433;28;20407;-73
2022/11/17 09:58:12;;;;;;;5.32;1.20;;;12.10;99.90;;;;;;5033367;28;20391;-73
2022/11/17 10:00:42;;;;;;;4.03;1.10;;;12.20;99.90;;;;;;5033559;28;20452;-73
2022/11/17 10:03:17;;;;;;;4.60;1.45;;;12.20;99.90;;;;;;5032589;28;20905;-72
2022/11/17 10:05:43;;;;;;;8.90;1.60;;;12.30;99.90;;;;;;5033086;28;20418;-72
2022/11/17 10:08:14;;;;;;;5.68;1.35;;;12.40;99.90;;;;;;5033187;28;20375;-70
2022/11/17 10:10:45;;;;;;;3.95;1.20;;;12.50;99.90;;;;;;5033180;28;20395;-70
2022/11/17 10:13:31;;;;;;;4.40;1.33;;;12.70;99.90;;;;;;5032649;28;20874;-71
2022/11/17 10:16:06;;;;;;;7.63;1.80;;;12.70;99.90;;;;;;5033018;28;20450;-69
2022/11/17 10:18:35;;;;;;;7.10;2.20;;;12.80;99.90;;;;;;5032873;28;20399;-70
2022/11/17 10:21:01;;;;;;;4.28;1.58;;;12.90;99.90;;;;;;5032902;28;20726;-71
2022/11/17 10:23:42;;;;;;;6.70;1.70;;;13.00;99.90;;;;;;5032369;28;20924;-70
2022/11/17 10:26:13;;;;;;;4.97;1.40;;;13.00;99.90;;;;;;5034224;28;20402;-70
2022/11/17 10:28:39;;;;;;;6.90;2.00;;;13.00;99.90;;;;;;5032931;28;20411;-71
2022/11/17 10:31:16;;;;;;;7.32;2.17;;;13.00;99.90;;;;;;5032105;28;20410;-70
2022/11/17 10:33:49;;;;;;;6.30;1.95;;;13.00;99.90;;;;;;5031927;28;20406;-69
2022/11/17 10:36:23;;;;;;;7.05;1.77;;;13.10;99.90;;;;;;5032805;28;20785;-70
2022/11/17 10:38:52;;;;;;;7.43;2.05;;;13.20;99.90;;;;;;5032651;28;20465;-70
2022/11/17 10:41:25;;;;;;;7.28;1.60;;;13.30;99.90;;;;;;5032526;28;20399;-71
2022/11/17 10:43:54;;;;;;;4.60;1.65;;;13.30;99.90;;;;;;5031652;28;20391;-69
2022/11/17 10:46:21;;;;;;;6.18;2.00;;;13.20;99.90;;;;;;5033160;28;20399;-70
2022/11/17 10:49:02;;;;;;;7.03;1.52;;;13.20;99.90;;;;;;5034395;28;20441;-71
2022/11/17 10:51:31;;;;;;;6.10;2.08;;;13.30;99.90;;;;;;5033443;28;20536;-71
2022/11/17 10:54:01;;;;;;;4.80;2.20;;;13.30;99.90;;;;;;5031705;28;20813;-71
2022/11/17 10:56:27;;;;;;;9.77;2.10;;;13.40;99.90;;;;;;5032476;28;20391;-72
2022/11/17 10:59:08;;;;;;;7.10;1.95;;;13.40;99.90;;;;;;5032614;28;20398;-70
2022/11/17 11:01:36;;;;;;;4.93;1.70;;;13.50;99.90;;;;;;5032369;28;20430;-68
2022/11/17 11:04:04;;;;;;;4.95;2.10;;;13.50;99.90;;;;;;5031240;28;21101;-68
2022/11/17 11:06:32;;;;;;;6.53;1.92;;;14.00;99.90;;;;;;5032028;28;20431;-71
2022/11/17 11:09:11;;;;;;;5.65;1.30;;;14.00;99.90;;;;;;5032253;28;20383;-71
2022/11/17 11:11:45;;;;;;;6.80;1.80;;;14.40;99.90;;;;;;5031920;28;20413;-71
2022/11/17 11:14:35;;;;;;;5.43;1.75;;;14.80;99.90;;;;;;5031059;28;20453;-69
2022/11/17 11:17:09;;;;;;;3.03;1.50;;;15.10;99.90;;;;;;5031740;28;20745;-73
2022/11/17 11:19:35;;;;;;;6.63;1.80;;;14.60;99.90;;;;;;5031803;28;20445;-70
2022/11/17 11:22:26;;;;;;;3.43;1.50;;;14.40;99.90;;;;;;5031887;28;20881;-71
2022/11/17 11:25:03;;;;;;;4.88;1.55;;;14.40;99.90;;;;;;5031919;28;20383;-72
2022/11/17 11:27:47;;;;;;;9.48;2.15;;;14.40;99.90;;;;;;5031863;28;20797;-70
2022/11/17 11:30:17;;;;;;;4.47;1.80;;;14.30;99.90;;;;;;5031848;28;20896;-71
2022/11/17 11:33:00;;;;;;;5.13;1.95;;;14.00;99.90;;;;;;5030926;28;20386;-71
2022/11/17 11:35:28;;;;;;;7.53;2.17;;;13.90;99.90;;;;;;5013713;28;20477;-71
2022/11/17 11:38:03;;;;;;;6.53;1.73;;;13.80;99.90;;;;;;5031587;28;20379;-71
2022/11/17 11:40:37;;;;;;;7.32;2.10;;;13.70;99.90;;;;;;5031274;28;20463;-72
2022/11/17 11:43:24;;;;;;;8.60;2.10;;;13.60;99.90;;;;;;5030789;28;20441;-71
2022/11/17 11:46:14;;;;;;;6.05;2.58;;;13.50;99.90;;;;;;5031333;28;20506;-71
2022/11/17 11:48:40;;;;;;;7.85;1.83;;;13.40;99.90;;;;;;5031618;28;20375;-72
2022/11/17 11:51:23;;;;;;;8.30;2.10;;;13.50;99.90;;;;;;5031285;28;20429;-71
2022/11/17 11:54:01;;;;;;;6.20;1.70;;;13.70;99.90;;;;;;5030573;28;20415;-71
2022/11/17 11:56:32;;;;;;;7.47;2.95;;;14.10;99.90;;;;;;5031662;28;20387;-72
2022/11/17 11:59:22;;;;;;;7.60;2.10;;;14.20;99.90;;;;;;5031350;28;20753;-70
2022/11/17 12:02:11;;;;;;;6.35;1.80;;;13.90;99.90;;;;;;5031143;28;20478;-75
2022/11/17 12:04:46;;;;;;;5.75;1.83;;;14.30;99.90;;;;;;5030151;28;20399;-71
2022/11/17 12:07:46;;;;;;;7.68;1.92;;;14.70;99.90;;;;;;5031213;28;20414;-71
2022/11/17 12:10:24;;;;;;;6.03;1.73;;;14.90;99.90;;;;;;5013690;28;20399;-71
2022/11/17 12:12:50;;;;;;;5.73;2.03;;;14.70;99.90;;;;;;5030522;28;20430;-71
2022/11/17 12:15:18;;;;;;;6.90;2.00;;;14.50;99.90;;;;;;5031337;28;20386;-70
2022/11/17 12:18:17;;;;;;;6.22;2.20;;;14.50;99.90;;;;;;5031091;28;20379;-70
2022/11/17 12:20:50;;;;;;;4.75;1.88;;;14.70;99.90;;;;;;5014384;28;20471;-71
2022/11/17 12:23:33;;;;;;;6.88;2.05;;;14.40;99.90;;;;;;5030134;28;20384;-71
2022/11/17 12:26:00;;;;;;;5.55;2.00;;;14.40;99.90;;;;;;5024852;28;20438;-71
2022/11/17 12:28:38;;;;;;;8.15;2.20;;;14.20;99.90;;;;;;5031496;28;20405;-71
2022/11/17 12:31:36;;;;;;;7.88;2.15;;;14.10;99.90;;;;;;5029037;28;20379;-69
2022/11/17 12:34:14;;;;;;;6.03;1.60;;;14.10;99.90;;;;;;4987211;28;20385;-71
2022/11/17 12:36:40;;;;;;;6.97;1.90;;;14.20;99.90;;;;;;5020421;28;20780;-71
2022/11/17 12:40:04;;;;;;;7.87;2.37;;;14.20;99.90;;;;;;5030270;28;20470;-71
2022/11/17 12:42:31;;;;;;;7.07;2.10;;;14.20;99.90;;;;;;4949829;29;20401;-70
2022/11/17 12:45:00;;;;;;;6.72;2.08;;;14.10;99.90;;;;;;4938425;29;20405;-70
2022/11/17 12:47:31;;;;;;;6.10;2.05;;;14.20;99.90;;;;;;4969748;28;20759;-70
2022/11/17 12:50:17;;;;;;;4.87;1.70;;;14.30;99.90;;;;;;5014522;28;20415;-70
2022/11/17 12:52:42;;;;;;;7.90;1.92;;;14.30;99.90;;;;;;5029051;28;20387;-71
2022/11/17 12:55:28;;;;;;;6.07;1.88;;;14.50;99.90;;;;;;5028958;28;21023;-69
2022/11/17 12:58:09;;;;;;;5.93;1.90;;;14.60;99.90;;;;;;5010009;28;20393;-70
2022/11/17 13:01:07;;;;;;;5.38;2.05;;;14.50;99.90;;;;;;5019415;28;20761;-70
2022/11/17 13:04:07;;;;;;;6.00;2.00;;;14.50;99.90;;;;;;5018269;28;20402;-70
2022/11/17 13:06:33;;;;;;;3.35;1.55;;;14.40;99.90;;;;;;5004312;28;20414;-70
2022/11/17 13:09:05;;;;;;;8.90;2.00;;;14.60;99.90;;;;;;5028709;28;20889;-71
2022/11/17 13:11:31;;;;;;;3.17;1.35;;;14.60;99.90;;;;;;5030316;28;20897;-71
2022/11/17 13:14:10;;;;;;;4.70;1.80;;;14.40;99.90;;;;;;5029805;28;20396;-71
2022/11/17 13:16:43;;;;;;;3.57;1.63;;;14.50;99.90;;;;;;5030031;28;20937;-70
2022/11/17 13:19:42;;;;;;;5.78;2.10;;;14.50;99.90;;;;;;5029769;28;20390;-70
2022/11/17 13:22:10;;;;;;;7.20;2.03;;;14.80;99.90;;;;;;4993425;28;20410;-71
2022/11/17 13:24:38;;;;;;;5.10;1.70;;;14.80;99.90;;;;;;5028683;28;20756;-70
2022/11/17 13:27:16;;;;;;;6.32;1.70;;;14.70;99.90;;;;;;5029811;28;20403;-70
2022/11/17 13:29:41;;;;;;;4.85;1.90;;;14.70;99.90;;;;;;5023384;28;20470;-71
2022/11/17 13:32:14;;;;;;;4.23;2.10;;;14.60;99.90;;;;;;5029835;28;20486;-70